createdAt,value
2022-09-09T00:01:23.163Z,1.50
2022-09-09T00:04:06.241Z,1.00
2022-09-09T00:06:55.257Z,0.90
2022-09-09T00:09:25.941Z,1.40
2022-09-09T00:11:57.840Z,0.90
2022-09-09T00:14:47.203Z,1.30
2022-09-09T00:17:36.132Z,1.30
2022-09-09T00:20:15.573Z,1.53
2022-09-09T00:23:00.234Z,1.40
2022-09-09T00:25:37.874Z,1.20
2022-09-09T00:28:19.473Z,1.00
2022-09-09T00:30:49.365Z,1.30
2022-09-09T00:33:22.110Z,1.10
2022-09-09T00:35:55.614Z,1.10
2022-09-09T00:38:33.401Z,1.37
2022-09-09T00:41:10.297Z,1.57
2022-09-09T00:43:39.087Z,1.53
2022-09-09T00:46:05.782Z,1.17
2022-09-09T00:48:48.320Z,1.10
2022-09-09T00:51:31.264Z,1.10
2022-09-09T00:54:35.446Z,1.60
2022-09-09T00:57:02.076Z,1.40
2022-09-09T00:59:43.833Z,1.40
2022-09-09T01:02:19.730Z,1.43
2022-09-09T01:04:46.702Z,1.30
2022-09-09T01:07:19.012Z,0.97
2022-09-09T01:09:59.793Z,1.50
2022-09-09T01:12:29.330Z,1.73
2022-09-09T01:15:10.088Z,1.20
2022-09-09T01:17:51.095Z,1.40
2022-09-09T01:20:26.932Z,1.37
2022-09-09T01:23:11.018Z,2.10
2022-09-09T01:26:02.557Z,1.67
2022-09-09T01:28:30.574Z,1.20
2022-09-09T01:30:58.480Z,1.33
2022-09-09T01:33:25.589Z,1.70
2022-09-09T01:36:01.660Z,1.60
2022-09-09T01:38:30.421Z,1.27
2022-09-09T01:40:57.100Z,1.53
2022-09-09T01:43:25.148Z,1.00
2022-09-09T01:45:55.183Z,1.27
2022-09-09T01:48:23.608Z,1.30
2022-09-09T01:50:50.433Z,1.27
2022-09-09T01:53:18.955Z,1.20
2022-09-09T01:56:03.929Z,1.43
2022-09-09T01:58:42.752Z,1.50
2022-09-09T02:01:24.260Z,1.13
2022-09-09T02:03:56.773Z,1.50
2022-09-09T02:06:34.775Z,1.20
2022-09-09T02:09:05.213Z,1.30
2022-09-09T02:11:33.075Z,1.50
2022-09-09T02:14:09.566Z,1.10
2022-09-09T02:16:43.282Z,1.70
2022-09-09T02:19:16.677Z,1.27
2022-09-09T02:21:46.267Z,1.50
2022-09-09T02:24:16.694Z,1.60
2022-09-09T02:26:45.924Z,1.27
2022-09-09T02:29:29.916Z,1.23
2022-09-09T02:32:03.183Z,1.10
2022-09-09T02:34:32.651Z,1.37
2022-09-09T02:37:00.882Z,1.13
2022-09-09T02:39:27.531Z,1.13
2022-09-09T02:41:54.369Z,1.20
2022-09-09T02:44:21.091Z,0.97
2022-09-09T02:46:59.445Z,1.00
2022-09-09T02:49:50.483Z,1.10
2022-09-09T02:52:23.889Z,1.77
2022-09-09T02:54:58.723Z,1.13
2022-09-09T02:57:29.276Z,1.10
2022-09-09T03:00:02.447Z,1.17
2022-09-09T03:02:29.398Z,1.00
2022-09-09T03:04:56.107Z,1.00
2022-09-09T03:07:23.084Z,0.90
2022-09-09T03:09:49.953Z,1.10
2022-09-09T03:12:17.269Z,1.00
2022-09-09T03:14:46.369Z,1.13
2022-09-09T03:17:13.154Z,1.40
2022-09-09T03:19:40.321Z,1.10
2022-09-09T03:22:06.972Z,1.00
2022-09-09T03:24:33.641Z,1.23
2022-09-09T03:27:00.317Z,1.00
2022-09-09T03:29:26.959Z,1.30
2022-09-09T03:31:55.088Z,1.57
2022-09-09T03:34:21.772Z,1.43
2022-09-09T03:36:49.676Z,1.10
2022-09-09T03:39:16.496Z,1.13
2022-09-09T03:41:43.086Z,1.37
2022-09-09T03:44:09.774Z,1.10
2022-09-09T03:46:36.523Z,1.10
2022-09-09T03:49:03.316Z,1.70
2022-09-09T03:51:30.019Z,1.17
2022-09-09T03:53:57.776Z,1.30
2022-09-09T03:56:24.710Z,1.10
2022-09-09T03:58:51.468Z,1.20
2022-09-09T04:01:18.974Z,1.60
2022-09-09T04:03:45.936Z,1.30
2022-09-09T04:06:15.510Z,0.80
2022-09-09T04:08:42.731Z,1.17
2022-09-09T04:11:10.651Z,1.00
2022-09-09T04:13:39.957Z,1.13
2022-09-09T04:16:07.207Z,1.30
2022-09-09T04:18:35.363Z,1.50
2022-09-09T04:21:02.341Z,1.37
2022-09-09T04:23:30.358Z,1.20
2022-09-09T04:25:59.693Z,1.50
2022-09-09T04:28:28.609Z,1.70
2022-09-09T04:30:55.853Z,1.00
2022-09-09T04:33:22.530Z,1.30
2022-09-09T04:35:50.991Z,1.03
2022-09-09T04:38:18.492Z,1.20
2022-09-09T04:40:48.463Z,1.40
2022-09-09T04:43:16.477Z,1.13
2022-09-09T04:45:43.864Z,1.30
2022-09-09T04:48:10.750Z,1.40
2022-09-09T04:50:37.412Z,1.10
2022-09-09T04:53:05.918Z,1.10
2022-09-09T04:55:33.152Z,1.40
2022-09-09T04:58:07.660Z,1.47
2022-09-09T05:00:38.268Z,1.20
2022-09-09T05:03:06.875Z,1.30
2022-09-09T05:05:35.204Z,1.20
2022-09-09T05:08:10.155Z,1.50
2022-09-09T05:10:39.316Z,1.27
2022-09-09T05:13:07.554Z,1.67
2022-09-09T05:15:34.313Z,1.40
2022-09-09T05:18:02.130Z,1.70
2022-09-09T05:20:29.196Z,1.30
2022-09-09T05:22:57.334Z,1.67
2022-09-09T05:25:27.290Z,1.10
2022-09-09T05:27:54.739Z,1.40
2022-09-09T05:30:23.130Z,1.10
2022-09-09T05:32:49.985Z,1.00
2022-09-09T05:35:17.374Z,0.93
2022-09-09T05:37:44.005Z,1.67
2022-09-09T05:40:11.870Z,1.30
2022-09-09T05:42:40.142Z,1.20
2022-09-09T05:45:08.778Z,1.70
2022-09-09T05:47:36.393Z,1.50
2022-09-09T05:50:03.260Z,1.57
2022-09-09T05:52:30.084Z,1.73
2022-09-09T05:54:57.962Z,1.50
2022-09-09T05:57:24.609Z,1.30
2022-09-09T05:59:51.351Z,1.10
2022-09-09T06:02:18.125Z,1.20
2022-09-09T06:04:44.810Z,1.30
2022-09-09T06:07:11.506Z,1.20
2022-09-09T06:09:38.245Z,1.33
2022-09-09T06:12:05.464Z,1.50
2022-09-09T06:14:32.255Z,1.53
2022-09-09T06:16:58.892Z,1.30
2022-09-09T06:19:27.377Z,1.30
2022-09-09T06:21:53.987Z,1.53
2022-09-09T06:24:21.076Z,1.30
2022-09-09T06:26:47.748Z,1.00
2022-09-09T06:29:14.400Z,1.63
2022-09-09T06:31:42.362Z,0.97
2022-09-09T06:34:10.348Z,1.30
2022-09-09T06:36:39.463Z,1.00
2022-09-09T06:39:13.650Z,1.43
2022-09-09T06:41:41.964Z,0.90
2022-09-09T06:44:08.675Z,0.93
2022-09-09T06:46:36.749Z,1.20
2022-09-09T06:49:03.974Z,1.00
2022-09-09T06:51:36.845Z,1.20
2022-09-09T06:54:04.859Z,1.57
2022-09-09T06:56:41.431Z,1.20
2022-09-09T06:59:10.369Z,1.10
2022-09-09T07:01:41.967Z,1.13
2022-09-09T07:04:09.959Z,1.40
2022-09-09T07:06:38.998Z,1.00
2022-09-09T07:09:11.210Z,1.20
2022-09-09T07:11:45.633Z,1.50
2022-09-09T07:14:15.624Z,1.33
2022-09-09T07:16:46.602Z,1.40
2022-09-09T07:19:15.302Z,1.00
2022-09-09T07:21:42.245Z,1.27
2022-09-09T07:24:11.357Z,1.17
2022-09-09T07:26:39.925Z,0.93
2022-09-09T07:29:06.731Z,1.23
2022-09-09T07:31:36.320Z,1.10
2022-09-09T07:34:05.252Z,0.97
2022-09-09T07:36:34.229Z,1.20
2022-09-09T07:39:03.806Z,1.00
2022-09-09T07:41:35.444Z,1.20
2022-09-09T07:44:11.713Z,1.40
2022-09-09T07:46:40.802Z,1.60
2022-09-09T07:49:09.548Z,0.93
2022-09-09T07:51:41.949Z,1.30
2022-09-09T07:54:12.033Z,1.30
2022-09-09T07:56:40.556Z,0.87
2022-09-09T07:59:08.482Z,1.27
2022-09-09T08:01:40.225Z,0.90
2022-09-09T08:04:16.032Z,1.60
2022-09-09T08:07:04.367Z,1.17
2022-09-09T08:09:33.437Z,1.37
2022-09-09T08:12:01.085Z,1.90
2022-09-09T08:14:28.144Z,1.67
2022-09-09T08:16:55.459Z,1.30
2022-09-09T08:19:23.392Z,1.37
2022-09-09T08:21:50.134Z,1.50
2022-09-09T08:24:17.544Z,2.20
2022-09-09T08:26:46.811Z,1.40
2022-09-09T08:29:14.851Z,1.20
2022-09-09T08:31:45.569Z,1.50
2022-09-09T08:34:13.433Z,2.00
2022-09-09T08:36:45.961Z,1.60
2022-09-09T08:39:15.625Z,1.20
2022-09-09T08:42:03.576Z,0.97
2022-09-09T08:45:01.523Z,1.13
2022-09-09T08:48:08.738Z,1.07
2022-09-09T08:50:42.414Z,1.00
2022-09-09T08:53:09.005Z,1.50
2022-09-09T08:55:49.451Z,1.00
2022-09-09T08:58:21.083Z,1.10
2022-09-09T09:01:00.627Z,1.00
2022-09-09T09:03:37.734Z,1.20
2022-09-09T09:06:25.485Z,1.07
2022-09-09T09:09:02.903Z,1.47
2022-09-09T09:11:37.536Z,1.00
2022-09-09T09:14:13.082Z,0.87
2022-09-09T09:17:01.892Z,1.27
2022-09-09T09:19:31.442Z,0.93
2022-09-09T09:22:08.136Z,0.90
2022-09-09T09:25:18.057Z,1.00
2022-09-09T09:28:06.661Z,0.97
2022-09-09T09:30:41.519Z,1.20
2022-09-09T09:33:25.385Z,0.90
2022-09-09T09:35:52.344Z,1.00
2022-09-09T09:41:14.320Z,1.00
2022-09-09T09:43:43.647Z,0.97
2022-09-09T09:46:26.526Z,0.90
2022-09-09T09:49:10.592Z,1.40
2022-09-09T09:51:37.506Z,1.60
2022-09-09T09:54:30.453Z,1.17
2022-09-09T09:56:58.485Z,1.83
2022-09-09T09:59:38.594Z,1.00
2022-09-09T10:02:15.015Z,1.03
2022-09-09T10:04:42.366Z,0.97
2022-09-09T10:07:23.126Z,1.10
2022-09-09T10:09:56.600Z,1.10
2022-09-09T10:13:17.020Z,1.13
2022-09-09T10:15:57.282Z,1.00
2022-09-09T10:18:43.350Z,1.00
2022-09-09T10:21:20.785Z,1.10
2022-09-09T10:24:15.177Z,0.90
2022-09-09T10:27:13.765Z,0.87
2022-09-09T10:30:09.764Z,1.13
2022-09-09T10:36:03.901Z,0.93
2022-09-09T10:38:42.713Z,1.57
2022-09-09T10:41:34.180Z,0.80
2022-09-09T10:44:22.479Z,1.07
2022-09-09T10:47:01.917Z,1.30
2022-09-09T10:49:37.741Z,1.30
2022-09-09T10:52:15.120Z,1.10
2022-09-09T10:55:01.474Z,1.33
2022-09-09T10:57:50.796Z,0.93
2022-09-09T11:00:28.660Z,0.77
2022-09-09T11:03:03.083Z,1.07
2022-09-09T11:05:51.502Z,1.17
2022-09-09T11:08:24.223Z,0.83
2022-09-09T11:11:00.574Z,1.03
2022-09-09T11:13:44.970Z,0.90
2022-09-09T11:16:39.651Z,1.23
2022-09-09T11:19:16.042Z,1.10
2022-09-09T11:21:47.289Z,1.00
2022-09-09T11:24:26.653Z,0.70
2022-09-09T11:27:10.519Z,1.00
2022-09-09T11:29:48.832Z,1.10
2022-09-09T11:32:25.108Z,1.10
2022-09-09T11:35:07.339Z,0.90
2022-09-09T11:38:03.037Z,0.80
2022-09-09T11:40:32.118Z,0.80
2022-09-09T11:43:28.223Z,1.10
2022-09-09T11:46:01.161Z,0.80
2022-09-09T11:48:49.323Z,0.73
2022-09-09T11:51:21.857Z,0.70
2022-09-09T11:53:53.770Z,0.67
2022-09-09T11:56:29.242Z,0.70
2022-09-09T11:59:06.376Z,0.80
2022-09-09T12:01:44.871Z,0.60
2022-09-09T12:04:22.307Z,0.70
2022-09-09T12:06:57.034Z,0.80
2022-09-09T12:09:34.453Z,0.83
2022-09-09T12:12:14.785Z,0.60
2022-09-09T12:14:55.436Z,0.90
2022-09-09T12:17:25.742Z,0.70
2022-09-09T12:20:22.972Z,0.50
2022-09-09T12:23:20.196Z,0.70
2022-09-09T12:25:56.500Z,0.70
2022-09-09T12:28:41.782Z,0.70
2022-09-09T12:31:35.666Z,0.60
2022-09-09T12:34:17.556Z,0.70
2022-09-09T12:36:53.206Z,0.70
2022-09-09T12:39:31.988Z,0.87
2022-09-09T12:41:58.744Z,0.70
2022-09-09T12:44:28.939Z,0.70
2022-09-09T12:47:00.323Z,0.50
2022-09-09T12:49:35.281Z,0.60
2022-09-09T12:52:31.190Z,0.77
2022-09-09T12:55:01.731Z,0.63
2022-09-09T12:57:35.409Z,0.70
2022-09-09T13:00:16.815Z,0.60
2022-09-09T13:03:01.984Z,0.60
2022-09-09T13:05:38.421Z,0.77
2022-09-09T13:08:08.411Z,0.70
2022-09-09T13:11:01.920Z,0.50
2022-09-09T13:13:38.774Z,0.50
2022-09-09T13:16:09.337Z,0.80
2022-09-09T13:18:39.563Z,0.70
2022-09-09T13:21:06.536Z,0.60
2022-09-09T13:23:38.193Z,1.03
2022-09-09T13:26:26.536Z,0.70
2022-09-09T13:28:55.577Z,0.60
2022-09-09T13:31:34.546Z,0.87
2022-09-09T13:34:15.522Z,0.70
2022-09-09T13:36:42.966Z,1.10
2022-09-09T13:39:19.764Z,0.70
2022-09-09T13:41:49.451Z,0.60
2022-09-09T13:44:24.258Z,0.60
2022-09-09T13:47:10.205Z,0.80
2022-09-09T13:49:37.287Z,1.00
2022-09-09T13:52:11.108Z,0.60
2022-09-09T13:54:37.763Z,0.93
2022-09-09T13:57:05.646Z,0.60
2022-09-09T14:00:01.311Z,0.67
2022-09-09T14:02:19.818Z,0.70
2022-09-09T14:04:46.472Z,0.83
2022-09-09T14:07:18.606Z,0.63
2022-09-09T14:09:50.679Z,0.60
2022-09-09T14:12:18.625Z,0.70
2022-09-09T14:14:45.829Z,0.87
2022-09-09T14:17:13.598Z,0.80
2022-09-09T14:19:40.232Z,1.03
2022-09-09T14:22:06.929Z,1.00
2022-09-09T14:24:34.905Z,0.90
2022-09-09T14:27:01.752Z,1.00
2022-09-09T14:29:28.425Z,0.70
2022-09-09T14:31:55.028Z,0.90
2022-09-09T14:34:21.766Z,0.93
2022-09-09T14:36:48.446Z,0.80
2022-09-09T14:39:15.107Z,0.80
2022-09-09T14:41:41.796Z,0.70
2022-09-09T14:44:09.473Z,0.57
2022-09-09T14:46:36.194Z,0.60
2022-09-09T14:49:03.348Z,0.80
2022-09-09T14:51:30.033Z,0.70
2022-09-09T14:53:59.158Z,0.50
2022-09-09T14:56:31.765Z,0.83
2022-09-09T14:59:01.658Z,0.83
2022-09-09T15:01:30.259Z,0.70
2022-09-09T15:03:59.211Z,0.60
2022-09-09T15:06:27.637Z,0.70
2022-09-09T15:08:54.873Z,0.60
2022-09-09T15:11:23.646Z,0.80
2022-09-09T15:13:53.584Z,0.80
2022-09-09T15:16:22.014Z,0.80
2022-09-09T15:18:52.820Z,0.83
2022-09-09T15:21:22.306Z,0.60
2022-09-09T15:23:49.260Z,0.87
2022-09-09T15:26:16.660Z,2.07
2022-09-09T15:28:45.313Z,0.80
2022-09-09T15:31:20.103Z,0.70
2022-09-09T15:33:54.192Z,0.90
2022-09-09T15:36:25.986Z,0.80
2022-09-09T15:38:53.729Z,0.70
2022-09-09T15:41:21.953Z,0.83
2022-09-09T15:43:51.573Z,0.70
2022-09-09T15:46:18.218Z,1.03
2022-09-09T15:48:47.318Z,1.00
2022-09-09T15:51:38.014Z,0.83
2022-09-09T15:54:02.483Z,0.80
2022-09-09T15:56:33.561Z,0.70
2022-09-09T15:59:03.223Z,0.80
2022-09-09T16:01:31.998Z,0.83
2022-09-09T16:04:00.935Z,0.73
2022-09-09T16:06:29.582Z,1.00
2022-09-09T16:08:57.959Z,0.70
2022-09-09T16:11:30.301Z,0.80
2022-09-09T16:13:57.057Z,0.93
2022-09-09T16:16:26.372Z,0.80
2022-09-09T16:18:55.808Z,0.70
2022-09-09T16:21:30.232Z,0.80
2022-09-09T16:24:00.341Z,0.80
2022-09-09T16:26:28.587Z,0.70
2022-09-09T16:28:55.369Z,0.83
2022-09-09T16:31:24.337Z,1.20
2022-09-09T16:33:52.001Z,0.80
2022-09-09T16:36:21.726Z,0.60
2022-09-09T16:38:48.416Z,0.90
2022-09-09T16:41:15.506Z,0.53
2022-09-09T16:43:42.426Z,1.00
2022-09-09T16:46:19.101Z,0.97
2022-09-09T16:48:47.651Z,1.00
2022-09-09T16:51:20.510Z,0.83
2022-09-09T16:53:47.534Z,0.67
2022-09-09T16:56:17.247Z,0.67
2022-09-09T16:58:46.204Z,1.00
2022-09-09T17:01:15.340Z,0.87
2022-09-09T17:03:42.227Z,0.73
2022-09-09T17:06:13.654Z,0.93
2022-09-09T17:08:42.296Z,0.93
2022-09-09T17:11:16.578Z,0.83
2022-09-09T17:13:44.142Z,0.90
2022-09-09T17:16:11.830Z,0.80
2022-09-09T17:18:38.987Z,1.30
2022-09-09T17:21:08.751Z,0.77
2022-09-09T17:23:38.923Z,0.80
2022-09-09T17:26:08.584Z,1.07
2022-09-09T17:28:36.840Z,0.60
2022-09-09T17:31:05.650Z,0.90
2022-09-09T17:33:34.175Z,1.00
2022-09-09T17:36:03.171Z,0.73
2022-09-09T17:38:30.224Z,1.30
2022-09-09T17:41:33.576Z,0.80
2022-09-09T17:44:00.946Z,1.00
2022-09-09T17:46:47.926Z,0.90
2022-09-09T17:49:18.254Z,1.10
2022-09-09T17:51:45.961Z,1.00
2022-09-09T17:54:18.341Z,0.80
2022-09-09T17:56:46.115Z,1.10
2022-09-09T17:59:14.094Z,0.83
2022-09-09T18:01:44.832Z,1.47
2022-09-09T18:04:16.324Z,1.33
2022-09-09T18:06:46.021Z,1.20
2022-09-09T18:09:18.745Z,1.13
2022-09-09T18:11:48.221Z,1.03
2022-09-09T18:14:20.934Z,1.10
2022-09-09T18:16:48.352Z,1.10
2022-09-09T18:19:19.156Z,1.10
2022-09-09T18:21:46.129Z,0.83
2022-09-09T18:24:14.302Z,1.10
2022-09-09T18:26:41.441Z,0.97
2022-09-09T18:29:11.274Z,0.77
2022-09-09T18:31:38.442Z,1.33
2022-09-09T18:34:07.212Z,1.00
2022-09-09T18:36:39.812Z,1.07
2022-09-09T18:39:07.403Z,1.03
2022-09-09T18:41:40.298Z,1.17
2022-09-09T18:44:13.676Z,1.00
2022-09-09T18:46:41.221Z,1.30
2022-09-09T18:49:08.300Z,1.17
2022-09-09T18:51:36.986Z,0.90
2022-09-09T18:54:11.196Z,1.20
2022-09-09T18:56:37.920Z,1.30
2022-09-09T18:59:07.192Z,1.00
2022-09-09T19:01:37.620Z,0.90
2022-09-09T19:04:06.133Z,1.00
2022-09-09T19:06:39.094Z,0.93
2022-09-09T19:09:06.238Z,1.40
2022-09-09T19:11:33.641Z,1.10
2022-09-09T19:14:02.632Z,1.20
2022-09-09T19:16:32.197Z,1.30
2022-09-09T19:19:01.520Z,1.30
2022-09-09T19:21:30.828Z,1.10
2022-09-09T19:24:16.537Z,1.13
2022-09-09T19:26:46.540Z,1.10
2022-09-09T19:29:20.905Z,1.50
2022-09-09T19:32:09.740Z,1.57
2022-09-09T19:34:36.387Z,1.00
2022-09-09T19:37:03.163Z,1.40
2022-09-09T19:39:29.834Z,1.50
2022-09-09T19:41:56.477Z,1.30
2022-09-09T19:44:23.232Z,1.70
2022-09-09T19:46:50.102Z,1.23
2022-09-09T19:49:17.558Z,1.77
2022-09-09T19:51:44.260Z,1.80
2022-09-09T19:54:14.076Z,1.80
2022-09-09T19:56:42.319Z,1.80
2022-09-09T19:59:11.041Z,1.90
2022-09-09T20:01:41.162Z,2.30
2022-09-09T20:04:08.704Z,1.93
2022-09-09T20:06:38.069Z,1.87
2022-09-09T20:09:06.576Z,1.77
2022-09-09T20:11:33.850Z,1.50
2022-09-09T20:14:00.754Z,1.93
2022-09-09T20:16:29.733Z,1.50
2022-09-09T20:19:02.211Z,1.70
2022-09-09T20:21:52.191Z,1.80
2022-09-09T20:24:20.430Z,1.70
2022-09-09T20:26:48.819Z,2.27
2022-09-09T20:29:18.377Z,2.10
2022-09-09T20:31:45.810Z,1.87
2022-09-09T20:34:19.209Z,2.30
2022-09-09T20:36:46.212Z,2.33
2022-09-09T20:39:16.040Z,2.37
2022-09-09T20:41:45.460Z,2.50
2022-09-09T20:44:23.944Z,2.00
2022-09-09T20:46:54.207Z,2.00
2022-09-09T20:49:22.435Z,1.70
2022-09-09T20:51:50.285Z,2.00
2022-09-09T20:54:25.889Z,2.00
2022-09-09T20:56:55.225Z,1.90
2022-09-09T20:59:27.242Z,1.70
2022-09-09T21:01:54.890Z,1.80
2022-09-09T21:04:22.334Z,1.93
2022-09-09T21:06:50.281Z,2.53
2022-09-09T21:09:17.822Z,2.70
2022-09-09T21:11:44.489Z,2.00
2022-09-09T21:14:11.154Z,1.97
2022-09-09T21:16:37.807Z,1.30
2022-09-09T21:19:04.471Z,1.40
2022-09-09T21:21:31.162Z,1.90
2022-09-09T21:24:00.320Z,1.50
2022-09-09T21:26:27.557Z,1.77
2022-09-09T21:28:55.802Z,1.80
2022-09-09T21:31:27.713Z,1.50
2022-09-09T21:33:54.794Z,2.23
2022-09-09T21:36:21.404Z,1.60
2022-09-09T21:38:48.212Z,1.40
2022-09-09T21:41:16.279Z,1.70
2022-09-09T21:43:45.034Z,1.70
2022-09-09T21:46:14.899Z,1.90
2022-09-09T21:48:42.170Z,2.10
2022-09-09T21:51:11.339Z,2.03
2022-09-09T21:53:38.517Z,1.37
2022-09-09T21:56:12.235Z,1.60
2022-09-09T21:58:39.695Z,1.47
2022-09-09T22:01:19.933Z,1.33
2022-09-09T22:03:46.690Z,1.87
2022-09-09T22:06:16.611Z,1.50
2022-09-09T22:08:44.788Z,1.30
2022-09-09T22:11:14.515Z,1.40
2022-09-09T22:13:42.592Z,1.43
2022-09-09T22:16:13.650Z,1.47
2022-09-09T22:18:41.055Z,1.03
2022-09-09T22:21:13.419Z,1.63
2022-09-09T22:23:40.509Z,1.23
2022-09-09T22:26:08.049Z,1.50
2022-09-09T22:28:35.626Z,1.50
2022-09-09T22:31:02.661Z,1.53
2022-09-09T22:33:29.471Z,1.23
2022-09-09T22:35:56.253Z,1.83
2022-09-09T22:38:22.985Z,1.70
2022-09-09T22:40:49.841Z,1.40
2022-09-09T22:43:19.600Z,1.13
2022-09-09T22:45:46.543Z,1.33
2022-09-09T22:48:14.475Z,1.10
2022-09-09T22:50:42.556Z,1.10
2022-09-09T22:53:13.143Z,1.30
2022-09-09T22:55:40.148Z,1.30
2022-09-09T22:58:07.140Z,0.93
2022-09-09T23:00:33.810Z,0.83
2022-09-09T23:03:00.613Z,1.30
2022-09-09T23:05:27.650Z,0.80
2022-09-09T23:07:58.228Z,0.80
2022-09-09T23:10:27.129Z,0.83
2022-09-09T23:12:54.285Z,0.80
2022-09-09T23:15:21.049Z,0.80
2022-09-09T23:17:47.679Z,1.03
2022-09-09T23:20:14.298Z,0.70
2022-09-09T23:22:40.950Z,0.80
2022-09-09T23:25:08.128Z,0.97
2022-09-09T23:27:37.320Z,0.70
2022-09-09T23:30:07.218Z,0.70
2022-09-09T23:32:34.181Z,0.63
2022-09-09T23:35:00.842Z,0.80
2022-09-09T23:37:27.483Z,0.70
2022-09-09T23:39:54.123Z,0.70
2022-09-09T23:42:20.786Z,1.00
2022-09-09T23:44:47.520Z,1.10
2022-09-09T23:47:14.594Z,0.70
2022-09-09T23:49:41.235Z,0.83
2022-09-09T23:52:07.957Z,0.60
2022-09-09T23:54:35.421Z,0.60
2022-09-09T23:57:03.498Z,0.80
2022-09-09T23:59:34.886Z,0.80
